sensor_id;sensor_type;location;lat;lon;timestamp;P1;durP1;ratioP1;P2;durP2;ratioP2
66667;SDS011;57205;51.438;-2.006;2024-03-07T00:00:44;26.33;;;16.75;;
66667;SDS011;57205;51.438;-2.006;2024-03-07T00:03:10;21.77;;;15.65;;
66667;SDS011;57205;51.438;-2.006;2024-03-07T00:05:37;26.45;;;17.17;;
66667;SDS011;57205;51.438;-2.006;2024-03-07T00:08:02;25.33;;;16.35;;
66667;SDS011;57205;51.438;-2.006;2024-03-07T00:10:28;27.60;;;17.30;;
66667;SDS011;57205;51.438;-2.006;2024-03-07T00:12:54;22.83;;;16.05;;
66667;SDS011;57205;51.438;-2.006;2024-03-07T00:15:19;22.42;;;15.38;;
66667;SDS011;57205;51.438;-2.006;2024-03-07T00:17:46;24.50;;;15.77;;
66667;SDS011;57205;51.438;-2.006;2024-03-07T00:20:11;20.45;;;14.60;;
66667;SDS011;57205;51.438;-2.006;2024-03-07T00:22:40;24.88;;;14.68;;
66667;SDS011;57205;51.438;-2.006;2024-03-07T00:25:06;25.98;;;16.60;;
66667;SDS011;57205;51.438;-2.006;2024-03-07T00:27:34;23.80;;;16.05;;
66667;SDS011;57205;51.438;-2.006;2024-03-07T00:30:00;24.00;;;16.15;;
66667;SDS011;57205;51.438;-2.006;2024-03-07T00:32:26;25.27;;;16.05;;
66667;SDS011;57205;51.438;-2.006;2024-03-07T00:34:55;23.92;;;16.13;;
66667;SDS011;57205;51.438;-2.006;2024-03-07T00:37:22;22.48;;;16.00;;
66667;SDS011;57205;51.438;-2.006;2024-03-07T00:39:49;21.65;;;15.15;;
66667;SDS011;57205;51.438;-2.006;2024-03-07T00:42:15;23.55;;;15.20;;
66667;SDS011;57205;51.438;-2.006;2024-03-07T00:44:40;24.25;;;17.15;;
66667;SDS011;57205;51.438;-2.006;2024-03-07T00:47:06;24.95;;;17.05;;
66667;SDS011;57205;51.438;-2.006;2024-03-07T00:49:32;23.65;;;16.52;;
66667;SDS011;57205;51.438;-2.006;2024-03-07T00:51:58;27.58;;;17.85;;
66667;SDS011;57205;51.438;-2.006;2024-03-07T00:54:24;27.00;;;18.23;;
66667;SDS011;57205;51.438;-2.006;2024-03-07T00:56:49;24.77;;;16.98;;
66667;SDS011;57205;51.438;-2.006;2024-03-07T00:59:18;28.90;;;16.85;;
66667;SDS011;57205;51.438;-2.006;2024-03-07T01:01:44;25.52;;;18.05;;
66667;SDS011;57205;51.438;-2.006;2024-03-07T01:04:09;26.10;;;16.85;;
66667;SDS011;57205;51.438;-2.006;2024-03-07T01:06:35;24.70;;;17.10;;
66667;SDS011;57205;51.438;-2.006;2024-03-07T01:09:04;27.10;;;18.45;;
66667;SDS011;57205;51.438;-2.006;2024-03-07T01:11:29;28.42;;;19.17;;
66667;SDS011;57205;51.438;-2.006;2024-03-07T01:13:55;26.35;;;17.25;;
66667;SDS011;57205;51.438;-2.006;2024-03-07T01:16:22;28.08;;;18.60;;
66667;SDS011;57205;51.438;-2.006;2024-03-07T01:18:47;25.70;;;17.67;;
66667;SDS011;57205;51.438;-2.006;2024-03-07T01:21:14;26.50;;;18.08;;
66667;SDS011;57205;51.438;-2.006;2024-03-07T01:23:40;27.80;;;18.40;;
66667;SDS011;57205;51.438;-2.006;2024-03-07T01:26:05;28.00;;;19.30;;
66667;SDS011;57205;51.438;-2.006;2024-03-07T01:28:31;29.15;;;18.98;;
66667;SDS011;57205;51.438;-2.006;2024-03-07T01:30:57;32.15;;;20.80;;
66667;SDS011;57205;51.438;-2.006;2024-03-07T01:33:23;33.13;;;20.77;;
66667;SDS011;57205;51.438;-2.006;2024-03-07T01:35:49;28.27;;;19.02;;
66667;SDS011;57205;51.438;-2.006;2024-03-07T01:38:15;33.45;;;20.48;;
66667;SDS011;57205;51.438;-2.006;2024-03-07T01:40:42;30.10;;;20.27;;
66667;SDS011;57205;51.438;-2.006;2024-03-07T01:43:08;30.27;;;19.33;;
66667;SDS011;57205;51.438;-2.006;2024-03-07T01:45:35;32.78;;;19.35;;
66667;SDS011;57205;51.438;-2.006;2024-03-07T01:48:02;32.00;;;19.58;;
66667;SDS011;57205;51.438;-2.006;2024-03-07T01:50:29;33.42;;;20.83;;
66667;SDS011;57205;51.438;-2.006;2024-03-07T01:52:55;34.60;;;20.65;;
66667;SDS011;57205;51.438;-2.006;2024-03-07T01:55:21;30.02;;;19.50;;
66667;SDS011;57205;51.438;-2.006;2024-03-07T01:57:48;27.65;;;18.15;;
66667;SDS011;57205;51.438;-2.006;2024-03-07T02:00:14;27.15;;;17.55;;
66667;SDS011;57205;51.438;-2.006;2024-03-07T02:02:40;32.47;;;17.33;;
66667;SDS011;57205;51.438;-2.006;2024-03-07T02:05:06;26.63;;;17.15;;
66667;SDS011;57205;51.438;-2.006;2024-03-07T02:07:31;33.50;;;17.88;;
66667;SDS011;57205;51.438;-2.006;2024-03-07T02:10:00;29.77;;;16.80;;
66667;SDS011;57205;51.438;-2.006;2024-03-07T02:12:30;30.98;;;18.05;;
66667;SDS011;57205;51.438;-2.006;2024-03-07T02:14:56;31.73;;;18.63;;
66667;SDS011;57205;51.438;-2.006;2024-03-07T02:17:22;31.45;;;17.88;;
66667;SDS011;57205;51.438;-2.006;2024-03-07T02:19:49;36.70;;;19.65;;
66667;SDS011;57205;51.438;-2.006;2024-03-07T02:22:15;33.17;;;17.90;;
66667;SDS011;57205;51.438;-2.006;2024-03-07T02:24:41;42.25;;;20.02;;
66667;SDS011;57205;51.438;-2.006;2024-03-07T02:27:06;36.03;;;20.20;;
66667;SDS011;57205;51.438;-2.006;2024-03-07T02:29:33;37.17;;;19.52;;
66667;SDS011;57205;51.438;-2.006;2024-03-07T02:31:59;38.70;;;19.23;;
66667;SDS011;57205;51.438;-2.006;2024-03-07T02:34:24;38.65;;;20.55;;
66667;SDS011;57205;51.438;-2.006;2024-03-07T02:36:51;46.78;;;19.63;;
66667;SDS011;57205;51.438;-2.006;2024-03-07T02:39:17;40.10;;;20.38;;
66667;SDS011;57205;51.438;-2.006;2024-03-07T02:41:42;32.78;;;19.00;;
66667;SDS011;57205;51.438;-2.006;2024-03-07T02:44:07;44.03;;;20.48;;
66667;SDS011;57205;51.438;-2.006;2024-03-07T02:46:33;39.08;;;19.25;;
66667;SDS011;57205;51.438;-2.006;2024-03-07T02:48:58;35.17;;;19.40;;
66667;SDS011;57205;51.438;-2.006;2024-03-07T02:51:25;36.22;;;19.92;;
66667;SDS011;57205;51.438;-2.006;2024-03-07T02:53:50;39.70;;;20.42;;
66667;SDS011;57205;51.438;-2.006;2024-03-07T02:56:15;35.40;;;19.67;;
66667;SDS011;57205;51.438;-2.006;2024-03-07T02:58:41;38.20;;;20.95;;
66667;SDS011;57205;51.438;-2.006;2024-03-07T03:01:07;37.35;;;18.98;;
66667;SDS011;57205;51.438;-2.006;2024-03-07T03:03:32;36.65;;;19.05;;
66667;SDS011;57205;51.438;-2.006;2024-03-07T03:05:58;37.92;;;20.02;;
66667;SDS011;57205;51.438;-2.006;2024-03-07T03:08:25;33.80;;;18.13;;
66667;SDS011;57205;51.438;-2.006;2024-03-07T03:10:50;38.95;;;19.10;;
66667;SDS011;57205;51.438;-2.006;2024-03-07T03:13:18;37.95;;;18.92;;
66667;SDS011;57205;51.438;-2.006;2024-03-07T03:15:44;35.17;;;18.70;;
66667;SDS011;57205;51.438;-2.006;2024-03-07T03:18:09;37.83;;;18.65;;
66667;SDS011;57205;51.438;-2.006;2024-03-07T03:20:38;36.92;;;19.45;;
66667;SDS011;57205;51.438;-2.006;2024-03-07T03:23:04;37.33;;;18.42;;
66667;SDS011;57205;51.438;-2.006;2024-03-07T03:25:30;37.90;;;19.02;;
66667;SDS011;57205;51.438;-2.006;2024-03-07T03:28:00;38.08;;;18.15;;
66667;SDS011;57205;51.438;-2.006;2024-03-07T03:30:26;39.80;;;20.85;;
66667;SDS011;57205;51.438;-2.006;2024-03-07T03:32:52;41.78;;;20.30;;
66667;SDS011;57205;51.438;-2.006;2024-03-07T03:35:17;42.63;;;20.13;;
66667;SDS011;57205;51.438;-2.006;2024-03-07T03:37:44;39.55;;;20.20;;
66667;SDS011;57205;51.438;-2.006;2024-03-07T03:40:10;44.50;;;22.08;;
66667;SDS011;57205;51.438;-2.006;2024-03-07T03:42:38;38.58;;;20.50;;
66667;SDS011;57205;51.438;-2.006;2024-03-07T03:45:04;45.15;;;21.17;;
66667;SDS011;57205;51.438;-2.006;2024-03-07T03:47:35;43.20;;;20.45;;
66667;SDS011;57205;51.438;-2.006;2024-03-07T03:50:05;43.15;;;22.55;;
66667;SDS011;57205;51.438;-2.006;2024-03-07T03:52:32;39.45;;;20.30;;
66667;SDS011;57205;51.438;-2.006;2024-03-07T03:54:58;42.60;;;21.52;;
66667;SDS011;57205;51.438;-2.006;2024-03-07T03:57:24;38.13;;;21.80;;
66667;SDS011;57205;51.438;-2.006;2024-03-07T03:59:50;41.83;;;20.63;;
66667;SDS011;57205;51.438;-2.006;2024-03-07T04:02:16;41.95;;;21.20;;
66667;SDS011;57205;51.438;-2.006;2024-03-07T04:04:42;35.97;;;19.95;;
66667;SDS011;57205;51.438;-2.006;2024-03-07T04:07:07;40.22;;;20.08;;
66667;SDS011;57205;51.438;-2.006;2024-03-07T04:09:33;43.67;;;19.63;;
66667;SDS011;57205;51.438;-2.006;2024-03-07T04:11:58;38.30;;;19.13;;
66667;SDS011;57205;51.438;-2.006;2024-03-07T04:14:24;43.83;;;21.30;;
66667;SDS011;57205;51.438;-2.006;2024-03-07T04:16:51;40.22;;;21.05;;
66667;SDS011;57205;51.438;-2.006;2024-03-07T04:19:16;40.50;;;20.05;;
66667;SDS011;57205;51.438;-2.006;2024-03-07T04:21:45;40.30;;;22.30;;
66667;SDS011;57205;51.438;-2.006;2024-03-07T04:24:11;40.72;;;21.20;;
66667;SDS011;57205;51.438;-2.006;2024-03-07T04:26:37;38.28;;;21.17;;
66667;SDS011;57205;51.438;-2.006;2024-03-07T04:29:02;40.00;;;20.77;;
66667;SDS011;57205;51.438;-2.006;2024-03-07T04:31:28;38.72;;;21.38;;
66667;SDS011;57205;51.438;-2.006;2024-03-07T04:33:54;42.00;;;20.42;;
66667;SDS011;57205;51.438;-2.006;2024-03-07T04:36:19;42.78;;;20.77;;
66667;SDS011;57205;51.438;-2.006;2024-03-07T04:38:44;41.53;;;21.10;;
66667;SDS011;57205;51.438;-2.006;2024-03-07T04:41:10;43.70;;;20.85;;
66667;SDS011;57205;51.438;-2.006;2024-03-07T04:43:36;40.88;;;21.08;;
66667;SDS011;57205;51.438;-2.006;2024-03-07T04:46:02;42.95;;;20.20;;
66667;SDS011;57205;51.438;-2.006;2024-03-07T04:48:30;42.90;;;20.02;;
66667;SDS011;57205;51.438;-2.006;2024-03-07T04:50:55;41.45;;;19.38;;
66667;SDS011;57205;51.438;-2.006;2024-03-07T04:53:22;42.55;;;20.48;;
66667;SDS011;57205;51.438;-2.006;2024-03-07T04:55:47;44.05;;;22.15;;
66667;SDS011;57205;51.438;-2.006;2024-03-07T04:58:13;40.97;;;21.98;;
66667;SDS011;57205;51.438;-2.006;2024-03-07T05:00:38;41.53;;;20.10;;
66667;SDS011;57205;51.438;-2.006;2024-03-07T05:03:04;42.15;;;20.73;;
66667;SDS011;57205;51.438;-2.006;2024-03-07T05:05:29;42.97;;;22.02;;
66667;SDS011;57205;51.438;-2.006;2024-03-07T05:08:00;43.55;;;21.45;;
66667;SDS011;57205;51.438;-2.006;2024-03-07T05:10:25;46.28;;;21.08;;
66667;SDS011;57205;51.438;-2.006;2024-03-07T05:12:54;42.42;;;20.85;;
66667;SDS011;57205;51.438;-2.006;2024-03-07T05:15:21;44.17;;;21.50;;
66667;SDS011;57205;51.438;-2.006;2024-03-07T05:17:54;43.50;;;21.02;;
66667;SDS011;57205;51.438;-2.006;2024-03-07T05:20:22;42.58;;;22.00;;
66667;SDS011;57205;51.438;-2.006;2024-03-07T05:22:49;47.97;;;23.30;;
66667;SDS011;57205;51.438;-2.006;2024-03-07T05:25:15;43.33;;;24.23;;
66667;SDS011;57205;51.438;-2.006;2024-03-07T05:27:43;42.55;;;23.80;;
66667;SDS011;57205;51.438;-2.006;2024-03-07T05:30:10;46.33;;;23.30;;
66667;SDS011;57205;51.438;-2.006;2024-03-07T05:37:47;43.35;;;23.60;;
66667;SDS011;57205;51.438;-2.006;2024-03-07T05:40:12;47.40;;;24.10;;
66667;SDS011;57205;51.438;-2.006;2024-03-07T05:42:38;48.30;;;21.92;;
66667;SDS011;57205;51.438;-2.006;2024-03-07T05:45:03;43.70;;;21.90;;
66667;SDS011;57205;51.438;-2.006;2024-03-07T05:47:32;44.67;;;23.13;;
66667;SDS011;57205;51.438;-2.006;2024-03-07T05:49:58;44.22;;;22.38;;
66667;SDS011;57205;51.438;-2.006;2024-03-07T05:52:24;43.60;;;20.50;;
66667;SDS011;57205;51.438;-2.006;2024-03-07T05:54:49;48.88;;;21.90;;
66667;SDS011;57205;51.438;-2.006;2024-03-07T05:57:15;49.92;;;21.90;;
66667;SDS011;57205;51.438;-2.006;2024-03-07T05:59:40;50.97;;;22.33;;
66667;SDS011;57205;51.438;-2.006;2024-03-07T06:02:06;53.78;;;22.67;;
66667;SDS011;57205;51.438;-2.006;2024-03-07T06:04:31;52.60;;;23.98;;
66667;SDS011;57205;51.438;-2.006;2024-03-07T06:06:57;50.58;;;22.40;;
66667;SDS011;57205;51.438;-2.006;2024-03-07T06:09:23;53.35;;;23.60;;
66667;SDS011;57205;51.438;-2.006;2024-03-07T06:11:49;53.85;;;23.50;;
66667;SDS011;57205;51.438;-2.006;2024-03-07T06:14:14;82.95;;;37.67;;
66667;SDS011;57205;51.438;-2.006;2024-03-07T06:16:41;55.75;;;24.23;;
66667;SDS011;57205;51.438;-2.006;2024-03-07T06:19:07;61.28;;;26.42;;
66667;SDS011;57205;51.438;-2.006;2024-03-07T06:21:34;55.25;;;25.23;;
66667;SDS011;57205;51.438;-2.006;2024-03-07T06:24:01;56.10;;;24.33;;
66667;SDS011;57205;51.438;-2.006;2024-03-07T06:26:28;57.92;;;24.05;;
66667;SDS011;57205;51.438;-2.006;2024-03-07T06:29:24;47.45;;;21.90;;
66667;SDS011;57205;51.438;-2.006;2024-03-07T06:31:52;55.67;;;23.55;;
66667;SDS011;57205;51.438;-2.006;2024-03-07T06:34:19;43.35;;;22.35;;
66667;SDS011;57205;51.438;-2.006;2024-03-07T06:36:45;49.60;;;22.15;;
66667;SDS011;57205;51.438;-2.006;2024-03-07T06:39:10;50.15;;;22.08;;
66667;SDS011;57205;51.438;-2.006;2024-03-07T06:41:37;49.53;;;21.75;;
66667;SDS011;57205;51.438;-2.006;2024-03-07T06:44:02;45.75;;;20.88;;
66667;SDS011;57205;51.438;-2.006;2024-03-07T06:46:28;41.53;;;20.40;;
66667;SDS011;57205;51.438;-2.006;2024-03-07T06:48:54;41.22;;;19.88;;
66667;SDS011;57205;51.438;-2.006;2024-03-07T06:51:23;45.08;;;20.33;;
66667;SDS011;57205;51.438;-2.006;2024-03-07T06:53:50;40.08;;;19.48;;
66667;SDS011;57205;51.438;-2.006;2024-03-07T06:56:16;42.88;;;20.50;;
66667;SDS011;57205;51.438;-2.006;2024-03-07T06:58:42;43.45;;;19.42;;
66667;SDS011;57205;51.438;-2.006;2024-03-07T07:01:11;40.58;;;19.13;;
66667;SDS011;57205;51.438;-2.006;2024-03-07T07:03:40;40.47;;;19.08;;
66667;SDS011;57205;51.438;-2.006;2024-03-07T07:06:08;45.85;;;19.40;;
66667;SDS011;57205;51.438;-2.006;2024-03-07T07:08:34;35.40;;;18.08;;
66667;SDS011;57205;51.438;-2.006;2024-03-07T07:11:00;36.95;;;17.45;;
66667;SDS011;57205;51.438;-2.006;2024-03-07T07:13:25;36.42;;;18.45;;
66667;SDS011;57205;51.438;-2.006;2024-03-07T07:15:51;38.70;;;17.60;;
66667;SDS011;57205;51.438;-2.006;2024-03-07T07:18:18;35.65;;;16.42;;
66667;SDS011;57205;51.438;-2.006;2024-03-07T07:20:44;31.08;;;15.70;;
66667;SDS011;57205;51.438;-2.006;2024-03-07T07:23:09;33.70;;;16.25;;
66667;SDS011;57205;51.438;-2.006;2024-03-07T07:25:35;36.95;;;16.15;;
66667;SDS011;57205;51.438;-2.006;2024-03-07T07:28:00;31.20;;;15.30;;
66667;SDS011;57205;51.438;-2.006;2024-03-07T07:30:29;34.60;;;17.00;;
66667;SDS011;57205;51.438;-2.006;2024-03-07T07:32:55;29.27;;;14.55;;
66667;SDS011;57205;51.438;-2.006;2024-03-07T07:35:20;33.58;;;16.27;;
66667;SDS011;57205;51.438;-2.006;2024-03-07T07:37:47;30.98;;;14.95;;
66667;SDS011;57205;51.438;-2.006;2024-03-07T07:40:17;32.45;;;17.60;;
66667;SDS011;57205;51.438;-2.006;2024-03-07T07:42:44;29.75;;;15.55;;
66667;SDS011;57205;51.438;-2.006;2024-03-07T07:45:12;29.27;;;15.23;;
66667;SDS011;57205;51.438;-2.006;2024-03-07T07:47:41;32.03;;;16.27;;
66667;SDS011;57205;51.438;-2.006;2024-03-07T07:50:09;28.42;;;15.23;;
66667;SDS011;57205;51.438;-2.006;2024-03-07T07:55:18;23.20;;;13.05;;
66667;SDS011;57205;51.438;-2.006;2024-03-07T07:57:45;26.65;;;12.73;;
66667;SDS011;57205;51.438;-2.006;2024-03-07T08:00:15;25.00;;;12.23;;
66667;SDS011;57205;51.438;-2.006;2024-03-07T08:05:21;21.63;;;12.63;;
66667;SDS011;57205;51.438;-2.006;2024-03-07T08:07:48;17.55;;;11.50;;
66667;SDS011;57205;51.438;-2.006;2024-03-07T08:10:16;21.50;;;12.68;;
66667;SDS011;57205;51.438;-2.006;2024-03-07T08:12:45;18.77;;;11.50;;
66667;SDS011;57205;51.438;-2.006;2024-03-07T08:15:13;20.08;;;11.95;;
66667;SDS011;57205;51.438;-2.006;2024-03-07T08:17:39;19.77;;;11.57;;
66667;SDS011;57205;51.438;-2.006;2024-03-07T08:20:08;19.77;;;10.75;;
66667;SDS011;57205;51.438;-2.006;2024-03-07T08:22:36;20.42;;;11.32;;
66667;SDS011;57205;51.438;-2.006;2024-03-07T08:25:09;21.05;;;11.38;;
66667;SDS011;57205;51.438;-2.006;2024-03-07T08:27:41;20.02;;;11.68;;
66667;SDS011;57205;51.438;-2.006;2024-03-07T08:30:09;18.83;;;11.05;;
66667;SDS011;57205;51.438;-2.006;2024-03-07T08:32:43;20.00;;;10.82;;
66667;SDS011;57205;51.438;-2.006;2024-03-07T08:35:09;20.40;;;11.40;;
66667;SDS011;57205;51.438;-2.006;2024-03-07T08:37:36;16.88;;;10.10;;
66667;SDS011;57205;51.438;-2.006;2024-03-07T08:40:03;18.38;;;10.82;;
66667;SDS011;57205;51.438;-2.006;2024-03-07T08:42:33;19.40;;;11.30;;
66667;SDS011;57205;51.438;-2.006;2024-03-07T08:44:59;16.33;;;10.48;;
66667;SDS011;57205;51.438;-2.006;2024-03-07T08:47:36;16.77;;;10.25;;
66667;SDS011;57205;51.438;-2.006;2024-03-07T08:50:03;15.13;;;9.67;;
66667;SDS011;57205;51.438;-2.006;2024-03-07T08:52:36;14.48;;;9.43;;
66667;SDS011;57205;51.438;-2.006;2024-03-07T08:55:02;16.45;;;9.80;;
66667;SDS011;57205;51.438;-2.006;2024-03-07T08:57:28;18.80;;;10.25;;
66667;SDS011;57205;51.438;-2.006;2024-03-07T08:59:54;14.73;;;8.82;;
66667;SDS011;57205;51.438;-2.006;2024-03-07T09:02:19;15.43;;;10.05;;
66667;SDS011;57205;51.438;-2.006;2024-03-07T09:04:45;16.17;;;8.77;;
66667;SDS011;57205;51.438;-2.006;2024-03-07T09:07:11;16.02;;;9.73;;
66667;SDS011;57205;51.438;-2.006;2024-03-07T09:09:38;15.35;;;8.73;;
66667;SDS011;57205;51.438;-2.006;2024-03-07T09:12:10;15.18;;;9.40;;
66667;SDS011;57205;51.438;-2.006;2024-03-07T09:14:36;15.25;;;10.60;;
66667;SDS011;57205;51.438;-2.006;2024-03-07T09:17:03;16.52;;;10.25;;
66667;SDS011;57205;51.438;-2.006;2024-03-07T09:19:30;16.58;;;10.32;;
66667;SDS011;57205;51.438;-2.006;2024-03-07T09:21:56;13.45;;;9.68;;
66667;SDS011;57205;51.438;-2.006;2024-03-07T09:24:21;16.55;;;10.35;;
66667;SDS011;57205;51.438;-2.006;2024-03-07T09:26:52;15.95;;;10.70;;
66667;SDS011;57205;51.438;-2.006;2024-03-07T09:29:18;16.40;;;10.30;;
66667;SDS011;57205;51.438;-2.006;2024-03-07T09:31:44;17.77;;;10.48;;
66667;SDS011;57205;51.438;-2.006;2024-03-07T09:34:20;15.13;;;9.40;;
66667;SDS011;57205;51.438;-2.006;2024-03-07T09:36:49;15.05;;;10.88;;
66667;SDS011;57205;51.438;-2.006;2024-03-07T09:39:16;15.50;;;9.25;;
66667;SDS011;57205;51.438;-2.006;2024-03-07T09:41:45;17.45;;;10.70;;
66667;SDS011;57205;51.438;-2.006;2024-03-07T09:44:17;18.45;;;10.48;;
66667;SDS011;57205;51.438;-2.006;2024-03-07T09:46:52;21.33;;;11.40;;
66667;SDS011;57205;51.438;-2.006;2024-03-07T09:49:20;16.40;;;10.45;;
66667;SDS011;57205;51.438;-2.006;2024-03-07T09:51:46;15.93;;;10.23;;
66667;SDS011;57205;51.438;-2.006;2024-03-07T09:54:13;17.13;;;11.25;;
66667;SDS011;57205;51.438;-2.006;2024-03-07T09:56:39;16.92;;;11.15;;
66667;SDS011;57205;51.438;-2.006;2024-03-07T09:59:09;17.23;;;10.75;;
66667;SDS011;57205;51.438;-2.006;2024-03-07T10:01:39;32.75;;;13.23;;
66667;SDS011;57205;51.438;-2.006;2024-03-07T10:04:08;17.38;;;12.02;;
66667;SDS011;57205;51.438;-2.006;2024-03-07T10:06:42;17.15;;;11.43;;
66667;SDS011;57205;51.438;-2.006;2024-03-07T10:09:19;18.20;;;10.85;;
66667;SDS011;57205;51.438;-2.006;2024-03-07T10:11:56;20.27;;;11.63;;
66667;SDS011;57205;51.438;-2.006;2024-03-07T10:14:22;15.75;;;11.27;;
66667;SDS011;57205;51.438;-2.006;2024-03-07T10:16:49;18.42;;;12.07;;
66667;SDS011;57205;51.438;-2.006;2024-03-07T10:19:14;15.45;;;10.85;;
66667;SDS011;57205;51.438;-2.006;2024-03-07T10:21:41;15.00;;;10.70;;
66667;SDS011;57205;51.438;-2.006;2024-03-07T10:24:08;18.52;;;11.50;;
66667;SDS011;57205;51.438;-2.006;2024-03-07T10:26:35;17.50;;;11.15;;
66667;SDS011;57205;51.438;-2.006;2024-03-07T10:29:10;15.98;;;10.93;;
66667;SDS011;57205;51.438;-2.006;2024-03-07T10:31:36;16.73;;;10.60;;
66667;SDS011;57205;51.438;-2.006;2024-03-07T10:34:04;15.52;;;9.52;;
66667;SDS011;57205;51.438;-2.006;2024-03-07T10:36:33;15.05;;;10.15;;
66667;SDS011;57205;51.438;-2.006;2024-03-07T10:39:02;14.73;;;9.73;;
66667;SDS011;57205;51.438;-2.006;2024-03-07T10:41:47;15.00;;;9.85;;
66667;SDS011;57205;51.438;-2.006;2024-03-07T10:44:35;15.50;;;9.60;;
66667;SDS011;57205;51.438;-2.006;2024-03-07T10:47:06;14.48;;;8.90;;
66667;SDS011;57205;51.438;-2.006;2024-03-07T10:49:36;16.02;;;10.48;;
66667;SDS011;57205;51.438;-2.006;2024-03-07T10:52:17;16.95;;;10.48;;
66667;SDS011;57205;51.438;-2.006;2024-03-07T11:00:34;17.30;;;11.02;;
66667;SDS011;57205;51.438;-2.006;2024-03-07T11:03:02;20.83;;;12.95;;
66667;SDS011;57205;51.438;-2.006;2024-03-07T11:05:34;18.38;;;12.82;;
66667;SDS011;57205;51.438;-2.006;2024-03-07T11:07:59;19.85;;;13.02;;
66667;SDS011;57205;51.438;-2.006;2024-03-07T11:10:46;24.60;;;13.20;;
66667;SDS011;57205;51.438;-2.006;2024-03-07T11:13:12;17.10;;;11.27;;
66667;SDS011;57205;51.438;-2.006;2024-03-07T11:15:40;16.55;;;10.98;;
66667;SDS011;57205;51.438;-2.006;2024-03-07T11:18:08;18.05;;;11.15;;
66667;SDS011;57205;51.438;-2.006;2024-03-07T11:20:36;20.25;;;11.30;;
66667;SDS011;57205;51.438;-2.006;2024-03-07T11:23:24;19.38;;;11.65;;
66667;SDS011;57205;51.438;-2.006;2024-03-07T11:26:14;20.70;;;11.65;;
66667;SDS011;57205;51.438;-2.006;2024-03-07T11:28:39;17.63;;;11.35;;
66667;SDS011;57205;51.438;-2.006;2024-03-07T11:33:39;19.95;;;11.40;;
66667;SDS011;57205;51.438;-2.006;2024-03-07T11:36:09;17.73;;;11.20;;
66667;SDS011;57205;51.438;-2.006;2024-03-07T11:38:44;19.17;;;12.35;;
66667;SDS011;57205;51.438;-2.006;2024-03-07T11:41:10;17.85;;;11.13;;
66667;SDS011;57205;51.438;-2.006;2024-03-07T11:43:42;18.75;;;10.70;;
66667;SDS011;57205;51.438;-2.006;2024-03-07T11:46:08;19.55;;;12.85;;
66667;SDS011;57205;51.438;-2.006;2024-03-07T11:48:41;22.35;;;11.05;;
66667;SDS011;57205;51.438;-2.006;2024-03-07T11:51:07;17.05;;;10.88;;
66667;SDS011;57205;51.438;-2.006;2024-03-07T11:53:36;18.92;;;11.23;;
66667;SDS011;57205;51.438;-2.006;2024-03-07T11:56:03;19.25;;;11.85;;
66667;SDS011;57205;51.438;-2.006;2024-03-07T11:58:37;18.27;;;12.05;;
66667;SDS011;57205;51.438;-2.006;2024-03-07T12:01:05;19.73;;;11.55;;
66667;SDS011;57205;51.438;-2.006;2024-03-07T12:03:35;22.70;;;11.55;;
66667;SDS011;57205;51.438;-2.006;2024-03-07T12:06:02;18.30;;;11.45;;
66667;SDS011;57205;51.438;-2.006;2024-03-07T12:08:28;20.13;;;11.82;;
66667;SDS011;57205;51.438;-2.006;2024-03-07T12:10:54;19.88;;;11.57;;
66667;SDS011;57205;51.438;-2.006;2024-03-07T12:13:21;20.88;;;11.95;;
66667;SDS011;57205;51.438;-2.006;2024-03-07T12:15:49;16.00;;;10.52;;
66667;SDS011;57205;51.438;-2.006;2024-03-07T12:18:16;21.90;;;11.30;;
66667;SDS011;57205;51.438;-2.006;2024-03-07T12:20:44;18.02;;;11.40;;
66667;SDS011;57205;51.438;-2.006;2024-03-07T12:23:16;20.85;;;13.00;;
66667;SDS011;57205;51.438;-2.006;2024-03-07T12:25:45;22.63;;;13.25;;
66667;SDS011;57205;51.438;-2.006;2024-03-07T12:28:12;19.75;;;11.38;;
66667;SDS011;57205;51.438;-2.006;2024-03-07T12:33:15;23.05;;;14.25;;
66667;SDS011;57205;51.438;-2.006;2024-03-07T12:35:45;23.73;;;13.95;;
66667;SDS011;57205;51.438;-2.006;2024-03-07T12:38:20;24.08;;;14.13;;
66667;SDS011;57205;51.438;-2.006;2024-03-07T12:41:01;24.52;;;15.57;;
66667;SDS011;57205;51.438;-2.006;2024-03-07T12:43:33;22.88;;;14.82;;
66667;SDS011;57205;51.438;-2.006;2024-03-07T12:45:59;23.92;;;13.93;;
66667;SDS011;57205;51.438;-2.006;2024-03-07T12:48:25;25.15;;;15.23;;
66667;SDS011;57205;51.438;-2.006;2024-03-07T12:50:52;23.48;;;15.75;;
66667;SDS011;57205;51.438;-2.006;2024-03-07T12:53:22;23.25;;;16.13;;
66667;SDS011;57205;51.438;-2.006;2024-03-07T12:55:49;25.73;;;16.65;;
66667;SDS011;57205;51.438;-2.006;2024-03-07T12:58:17;31.20;;;19.35;;
66667;SDS011;57205;51.438;-2.006;2024-03-07T13:00:45;26.75;;;16.33;;
66667;SDS011;57205;51.438;-2.006;2024-03-07T13:03:10;32.20;;;20.90;;
66667;SDS011;57205;51.438;-2.006;2024-03-07T13:05:36;32.80;;;20.65;;
66667;SDS011;57205;51.438;-2.006;2024-03-07T13:08:08;34.35;;;20.50;;
66667;SDS011;57205;51.438;-2.006;2024-03-07T13:10:44;34.55;;;21.83;;
66667;SDS011;57205;51.438;-2.006;2024-03-07T13:13:10;34.40;;;22.52;;
66667;SDS011;57205;51.438;-2.006;2024-03-07T13:15:39;35.67;;;22.42;;
66667;SDS011;57205;51.438;-2.006;2024-03-07T13:18:07;35.30;;;23.33;;
66667;SDS011;57205;51.438;-2.006;2024-03-07T13:20:34;35.67;;;23.60;;
66667;SDS011;57205;51.438;-2.006;2024-03-07T13:23:00;35.42;;;22.05;;
66667;SDS011;57205;51.438;-2.006;2024-03-07T13:25:27;36.13;;;22.10;;
66667;SDS011;57205;51.438;-2.006;2024-03-07T13:30:38;40.38;;;22.88;;
66667;SDS011;57205;51.438;-2.006;2024-03-07T13:33:05;35.22;;;23.10;;
66667;SDS011;57205;51.438;-2.006;2024-03-07T13:35:31;34.90;;;21.88;;
66667;SDS011;57205;51.438;-2.006;2024-03-07T13:37:57;34.75;;;22.30;;
66667;SDS011;57205;51.438;-2.006;2024-03-07T13:40:23;39.58;;;23.13;;
66667;SDS011;57205;51.438;-2.006;2024-03-07T13:42:51;34.72;;;22.13;;
66667;SDS011;57205;51.438;-2.006;2024-03-07T13:45:20;36.83;;;22.73;;
66667;SDS011;57205;51.438;-2.006;2024-03-07T13:47:53;36.97;;;22.83;;
66667;SDS011;57205;51.438;-2.006;2024-03-07T13:50:20;38.85;;;24.52;;
66667;SDS011;57205;51.438;-2.006;2024-03-07T13:52:51;35.88;;;23.08;;
66667;SDS011;57205;51.438;-2.006;2024-03-07T13:58:40;36.38;;;23.15;;
66667;SDS011;57205;51.438;-2.006;2024-03-07T14:01:31;38.42;;;24.52;;
66667;SDS011;57205;51.438;-2.006;2024-03-07T14:10:31;36.38;;;22.98;;
66667;SDS011;57205;51.438;-2.006;2024-03-07T14:32:05;37.40;;;22.77;;
66667;SDS011;57205;51.438;-2.006;2024-03-07T14:40:15;40.38;;;24.65;;
66667;SDS011;57205;51.438;-2.006;2024-03-07T14:42:44;40.38;;;25.23;;
66667;SDS011;57205;51.438;-2.006;2024-03-07T14:45:13;39.95;;;24.63;;
66667;SDS011;57205;51.438;-2.006;2024-03-07T14:47:44;40.03;;;24.70;;
66667;SDS011;57205;51.438;-2.006;2024-03-07T14:50:12;41.70;;;24.23;;
66667;SDS011;57205;51.438;-2.006;2024-03-07T14:52:37;40.10;;;25.17;;
66667;SDS011;57205;51.438;-2.006;2024-03-07T14:55:07;38.72;;;24.27;;
66667;SDS011;57205;51.438;-2.006;2024-03-07T14:57:39;38.97;;;23.90;;
66667;SDS011;57205;51.438;-2.006;2024-03-07T15:00:06;37.30;;;23.65;;
66667;SDS011;57205;51.438;-2.006;2024-03-07T15:02:42;39.08;;;21.95;;
66667;SDS011;57205;51.438;-2.006;2024-03-07T15:05:10;34.53;;;22.52;;
66667;SDS011;57205;51.438;-2.006;2024-03-07T15:07:36;35.65;;;23.10;;
66667;SDS011;57205;51.438;-2.006;2024-03-07T15:10:02;33.83;;;21.88;;